createdAt,value
2019-04-01T00:00:37.936Z,26.0624
2019-04-01T00:01:40.228Z,26.1494
2019-04-01T00:02:42.577Z,26.2364
2019-04-01T00:03:44.872Z,26.2531
2019-04-01T00:04:47.173Z,26.2394
2019-04-01T00:05:49.464Z,26.2226
2019-04-01T00:06:51.756Z,26.1662
2019-04-01T00:07:54.051Z,26.2181
2019-04-01T00:08:56.344Z,26.3218
2019-04-01T00:09:58.720Z,26.3371
2019-04-01T00:11:01.020Z,26.1906
2019-04-01T00:12:03.307Z,26.2638
2019-04-01T00:13:05.623Z,26.2959
2019-04-01T00:14:07.916Z,26.3645
2019-04-01T00:15:10.218Z,26.2806
2019-04-01T00:16:12.507Z,26.3218
2019-04-01T00:17:14.802Z,26.2043
2019-04-01T00:18:17.124Z,26.3050
2019-04-01T00:19:19.418Z,26.2623
2019-04-01T00:20:21.715Z,26.2181
2019-04-01T00:21:23.999Z,26.3050
2019-04-01T00:22:26.287Z,26.2455
2019-04-01T00:23:28.606Z,26.2760
2019-04-01T00:24:30.894Z,26.2760
2019-04-01T00:25:33.180Z,26.3493
2019-04-01T00:26:35.476Z,26.3035
2019-04-01T00:27:37.803Z,26.2913
2019-04-01T00:28:40.089Z,26.3172
2019-04-01T00:29:42.385Z,26.2455
2019-04-01T00:30:44.671Z,26.3325
2019-04-01T00:31:46.998Z,26.2730
2019-04-01T00:32:49.374Z,26.2592
2019-04-01T00:33:51.669Z,26.3600
2019-04-01T00:34:53.969Z,26.2592
2019-04-01T00:35:56.255Z,26.3600
2019-04-01T00:36:58.552Z,26.2577
2019-04-01T00:38:00.836Z,26.4149
2019-04-01T00:39:03.129Z,26.3584
2019-04-01T00:40:05.501Z,26.3539
2019-04-01T00:41:07.788Z,26.3996
2019-04-01T00:42:10.077Z,26.3417
2019-04-01T00:43:12.373Z,26.3417
2019-04-01T00:44:14.688Z,26.2959
2019-04-01T00:45:16.977Z,26.2531
2019-04-01T00:46:19.277Z,26.2959
2019-04-01T00:47:21.564Z,26.3127
2019-04-01T00:48:23.854Z,26.3417
2019-04-01T00:49:26.185Z,26.3233
2019-04-01T00:50:28.484Z,26.2669
2019-04-01T00:51:30.777Z,26.3996
2019-04-01T00:52:33.084Z,26.3691
2019-04-01T00:53:35.368Z,26.3996
2019-04-01T00:54:37.686Z,26.4546
2019-04-01T00:55:39.975Z,26.4134
2019-04-01T00:56:42.282Z,26.3050
2019-04-01T00:57:44.577Z,26.3233
2019-04-01T00:58:46.862Z,26.3508
2019-04-01T00:59:49.190Z,26.2943
2019-04-01T01:00:51.481Z,26.4088
2019-04-01T01:01:53.784Z,26.3951
2019-04-01T01:02:56.082Z,26.4378
2019-04-01T01:03:58.376Z,26.4225
2019-04-01T01:05:00.693Z,26.4500
2019-04-01T01:06:02.984Z,26.3493
2019-04-01T01:07:05.271Z,26.3783
2019-04-01T01:08:07.588Z,26.4057
2019-04-01T01:09:09.880Z,26.4057
2019-04-01T01:10:12.196Z,26.4652
2019-04-01T01:11:14.484Z,26.2440
2019-04-01T01:12:16.781Z,26.3355
2019-04-01T01:13:19.073Z,26.4363
2019-04-01T01:14:21.363Z,26.3783
2019-04-01T01:15:23.686Z,26.4363
2019-04-01T01:16:25.971Z,26.4179
2019-04-01T01:17:28.263Z,26.5049
2019-04-01T01:18:30.549Z,26.3905
2019-04-01T01:19:32.844Z,26.3767
2019-04-01T01:20:35.162Z,26.4607
2019-04-01T01:21:37.454Z,26.4469
2019-04-01T01:22:39.746Z,26.5599
2019-04-01T01:23:42.034Z,26.5324
2019-04-01T01:24:44.328Z,26.3905
2019-04-01T01:25:46.644Z,26.4607
2019-04-01T01:26:48.934Z,26.4607
2019-04-01T01:27:51.225Z,26.4607
2019-04-01T01:28:53.525Z,26.5156
2019-04-01T01:29:55.811Z,26.4591
2019-04-01T01:30:58.192Z,26.4775
2019-04-01T01:32:00.518Z,26.5019
2019-04-01T01:33:02.822Z,26.4469
2019-04-01T01:34:05.125Z,26.3874
2019-04-01T01:35:07.427Z,26.4149
2019-04-01T01:36:09.749Z,26.4012
2019-04-01T01:37:12.026Z,26.3401
2019-04-01T01:38:14.322Z,26.4179
2019-04-01T01:39:16.614Z,26.5278
2019-04-01T01:40:18.907Z,26.3905
2019-04-01T01:41:21.227Z,26.4881
2019-04-01T01:42:23.524Z,26.3874
2019-04-01T01:43:25.809Z,26.4424
2019-04-01T01:44:28.087Z,26.3554
2019-04-01T01:45:30.383Z,26.3371
2019-04-01T01:46:32.708Z,26.3554
2019-04-01T01:47:34.991Z,26.3539
2019-04-01T01:48:37.285Z,26.4561
2019-04-01T01:49:39.583Z,26.4088
2019-04-01T01:50:41.871Z,26.4271
2019-04-01T01:51:44.189Z,26.4134
2019-04-01T01:52:46.484Z,26.3951
2019-04-01T01:53:48.773Z,26.4134
2019-04-01T01:54:51.070Z,26.4088
2019-04-01T01:55:53.394Z,26.4103
2019-04-01T01:56:55.706Z,26.4378
2019-04-01T01:57:58.001Z,26.3966
2019-04-01T01:59:00.292Z,26.4515
2019-04-01T02:00:02.596Z,26.5553
2019-04-01T02:01:04.897Z,26.3920
2019-04-01T02:02:07.183Z,26.4637
2019-04-01T02:03:09.467Z,26.4500
2019-04-01T02:04:11.753Z,26.4500
2019-04-01T02:05:14.049Z,26.5110
2019-04-01T02:06:16.345Z,26.4912
2019-04-01T02:07:18.643Z,26.5049
2019-04-01T02:08:20.940Z,26.5232
2019-04-01T02:09:23.230Z,26.5797
2019-04-01T02:10:25.594Z,26.5461
2019-04-01T02:11:27.896Z,26.5232
2019-04-01T02:12:30.183Z,26.4912
2019-04-01T02:13:32.473Z,26.5476
2019-04-01T02:14:34.768Z,26.5476
2019-04-01T02:15:44.891Z,26.4790
2019-04-01T02:16:47.185Z,26.5614
2019-04-01T02:17:49.505Z,26.5476
2019-04-01T02:18:51.796Z,26.4790
2019-04-01T02:19:54.086Z,26.5614
2019-04-01T02:20:56.376Z,26.5599
2019-04-01T02:21:58.668Z,26.6606
2019-04-01T02:23:00.971Z,26.5339
2019-04-01T02:24:03.287Z,26.5782
2019-04-01T02:25:05.587Z,26.5614
2019-04-01T02:26:07.881Z,26.5461
2019-04-01T02:27:10.169Z,26.5476
2019-04-01T02:28:12.487Z,26.6300
2019-04-01T02:29:14.787Z,26.6438
2019-04-01T02:30:17.080Z,26.6743
2019-04-01T02:31:19.375Z,26.6896
2019-04-01T02:32:21.672Z,26.7018
2019-04-01T02:33:24.014Z,26.6606
2019-04-01T02:34:26.326Z,26.6880
2019-04-01T02:35:28.620Z,26.6880
2019-04-01T02:36:30.940Z,26.6712
2019-04-01T02:37:33.248Z,26.6743
2019-04-01T02:38:35.579Z,26.6850
2019-04-01T02:39:37.867Z,26.6194
2019-04-01T02:40:40.173Z,26.6331
2019-04-01T02:41:42.477Z,26.6712
2019-04-01T02:42:44.793Z,26.7155
2019-04-01T02:43:47.118Z,26.7567
2019-04-01T02:44:49.409Z,26.7765
2019-04-01T02:45:51.705Z,26.6697
2019-04-01T02:46:54.016Z,26.7445
2019-04-01T02:47:56.313Z,26.7445
2019-04-01T02:48:58.628Z,26.7567
2019-04-01T02:50:00.916Z,26.6697
2019-04-01T02:51:03.214Z,26.7567
2019-04-01T02:52:05.534Z,26.7994
2019-04-01T02:53:07.842Z,26.7674
2019-04-01T02:54:10.175Z,26.8254
2019-04-01T02:55:12.468Z,26.7079
2019-04-01T02:56:14.767Z,26.7567
2019-04-01T02:57:17.067Z,26.6987
2019-04-01T02:58:19.369Z,26.8711
2019-04-01T02:59:21.738Z,26.8406
2019-04-01T03:00:24.042Z,26.8269
2019-04-01T03:01:26.338Z,26.8269
2019-04-01T03:02:28.645Z,26.7994
2019-04-01T03:03:30.955Z,26.8574
2019-04-01T03:04:33.292Z,26.8681
2019-04-01T03:05:35.591Z,26.8864
2019-04-01T03:06:37.932Z,26.8574
2019-04-01T03:07:40.237Z,26.8574
2019-04-01T03:08:42.531Z,26.8711
2019-04-01T03:09:44.841Z,26.9398
2019-04-01T03:10:47.137Z,26.9139
2019-04-01T03:11:49.439Z,26.8681
2019-04-01T03:12:51.763Z,26.8574
2019-04-01T03:13:54.081Z,26.9001
2019-04-01T03:14:56.408Z,26.8818
2019-04-01T03:15:58.705Z,26.9078
2019-04-01T03:17:01.013Z,26.9398
2019-04-01T03:18:03.320Z,26.9947
2019-04-01T03:19:05.635Z,26.9551
2019-04-01T03:20:07.942Z,26.9398
2019-04-01T03:21:10.253Z,27.0146
2019-04-01T03:22:12.549Z,27.0146
2019-04-01T03:23:14.841Z,26.9947
2019-04-01T03:24:17.150Z,26.9734
2019-04-01T03:25:19.467Z,27.0405
2019-04-01T03:26:21.770Z,26.9718
2019-04-01T03:27:24.066Z,27.0283
2019-04-01T03:28:26.371Z,27.0695
2019-04-01T03:29:28.669Z,27.0268
2019-04-01T03:30:30.983Z,27.0817
2019-04-01T03:31:33.307Z,27.0970
2019-04-01T03:32:35.611Z,27.1382
2019-04-01T03:33:37.942Z,27.1412
2019-04-01T03:34:40.236Z,27.0649
2019-04-01T03:35:42.557Z,27.1382
2019-04-01T03:36:44.847Z,27.0817
2019-04-01T03:37:47.137Z,26.9734
2019-04-01T03:38:49.441Z,27.1107
2019-04-01T03:39:51.782Z,27.1107
2019-04-01T03:40:54.149Z,27.1107
2019-04-01T03:41:56.443Z,27.1550
2019-04-01T03:42:58.755Z,27.1962
2019-04-01T03:44:01.077Z,27.0817
2019-04-01T03:45:03.364Z,27.0726
2019-04-01T03:46:05.669Z,27.1412
2019-04-01T03:47:07.966Z,27.1412
2019-04-01T03:48:10.269Z,27.1382
2019-04-01T03:49:12.929Z,27.2099
2019-04-01T03:50:15.300Z,27.1565
2019-04-01T03:51:17.600Z,27.2831
2019-04-01T03:52:19.903Z,27.2663
2019-04-01T03:53:22.200Z,27.2984
2019-04-01T03:54:24.489Z,27.2374
2019-04-01T03:55:26.786Z,27.2419
2019-04-01T03:56:29.108Z,27.3564
2019-04-01T03:57:31.395Z,27.3671
2019-04-01T03:58:33.686Z,27.4250
2019-04-01T03:59:35.996Z,27.3991
2019-04-01T04:00:38.298Z,27.3854
2019-04-01T04:01:40.630Z,27.3701
2019-04-01T04:02:42.935Z,27.4083
2019-04-01T04:03:45.260Z,27.4220
2019-04-01T04:04:47.558Z,27.4128
2019-04-01T04:05:49.864Z,27.3442
2019-04-01T04:06:52.202Z,27.3991
2019-04-01T04:07:54.501Z,27.3304
2019-04-01T04:09:01.429Z,27.3854
2019-04-01T04:10:05.044Z,27.4540
2019-04-01T04:11:07.353Z,27.4815
2019-04-01T04:12:09.686Z,27.4846
2019-04-01T04:13:11.996Z,27.4998
2019-04-01T04:14:14.303Z,27.4998
2019-04-01T04:15:16.595Z,27.4846
2019-04-01T04:16:18.905Z,27.5135
2019-04-01T04:17:21.234Z,27.5166
2019-04-01T04:18:23.527Z,27.5593
2019-04-01T04:19:25.858Z,27.5593
2019-04-01T04:20:28.149Z,27.5166
2019-04-01T04:21:30.446Z,27.5822
2019-04-01T04:22:32.795Z,27.6143
2019-04-01T04:23:35.104Z,27.6555
2019-04-01T04:24:37.396Z,27.6829
2019-04-01T04:25:39.699Z,27.6951
2019-04-01T04:26:41.991Z,27.7974
2019-04-01T04:27:44.333Z,27.7134
2019-04-01T04:28:46.630Z,27.8553
2019-04-01T04:29:48.921Z,27.7409
2019-04-01T04:30:51.226Z,27.8431
2019-04-01T04:31:53.538Z,27.8141
2019-04-01T04:32:55.867Z,27.8569
2019-04-01T04:33:58.164Z,27.6829
2019-04-01T04:35:00.479Z,27.9255
2019-04-01T04:36:02.793Z,27.8874
2019-04-01T04:37:05.112Z,27.8294
2019-04-01T04:38:07.544Z,27.7333
2019-04-01T04:39:09.843Z,27.7592
2019-04-01T04:40:12.162Z,27.7455
2019-04-01T04:41:14.461Z,27.7455
2019-04-01T04:42:16.749Z,27.7607
2019-04-01T04:43:19.088Z,27.7775
2019-04-01T04:44:21.377Z,27.8614
2019-04-01T04:45:23.661Z,27.8782
2019-04-01T04:46:25.949Z,27.9210
2019-04-01T04:47:28.250Z,27.9927
2019-04-01T04:48:30.572Z,27.9744
2019-04-01T04:49:32.854Z,27.9438
2019-04-01T04:50:35.155Z,28.0034
2019-04-01T04:51:37.444Z,28.0018
2019-04-01T04:52:39.736Z,28.0705
2019-04-01T04:53:42.053Z,28.0156
2019-04-01T04:54:44.346Z,27.9789
2019-04-01T04:55:46.634Z,28.0430
2019-04-01T04:56:48.920Z,28.0613
2019-04-01T04:57:51.217Z,28.0858
2019-04-01T04:58:53.529Z,28.0156
2019-04-01T04:59:55.830Z,28.1041
2019-04-01T05:00:58.135Z,28.0903
2019-04-01T05:02:00.502Z,28.1041
2019-04-01T05:03:02.879Z,28.0064
2019-04-01T05:04:05.262Z,28.0339
2019-04-01T05:05:07.563Z,28.0797
2019-04-01T05:06:09.856Z,28.1361
2019-04-01T05:07:12.158Z,28.0812
2019-04-01T05:08:14.453Z,28.1300
2019-04-01T05:09:16.764Z,28.0995
2019-04-01T05:10:19.054Z,28.1361
2019-04-01T05:11:21.354Z,28.0720
2019-04-01T05:12:23.666Z,28.0171
2019-04-01T05:13:25.953Z,27.9850
2019-04-01T05:14:28.252Z,28.0125
2019-04-01T05:15:30.540Z,27.9713
2019-04-01T05:16:32.844Z,27.9850
2019-04-01T05:17:35.139Z,27.9438
2019-04-01T05:18:37.429Z,27.9561
2019-04-01T05:19:39.738Z,28.0995
2019-04-01T05:20:42.033Z,28.2139
2019-04-01T05:21:44.341Z,28.0430
2019-04-01T05:22:46.629Z,28.1392
2019-04-01T05:23:48.937Z,28.2719
2019-04-01T05:24:51.294Z,28.3009
2019-04-01T05:25:53.588Z,28.2765
2019-04-01T05:27:02.999Z,28.3009
2019-04-01T05:28:13.020Z,28.3284
2019-04-01T05:29:15.311Z,28.4016
2019-04-01T05:30:17.253Z,28.3650
2019-04-01T05:31:19.543Z,28.3360
2019-04-01T05:32:21.828Z,28.3330
2019-04-01T05:33:24.197Z,28.3467
2019-04-01T05:34:26.495Z,28.3467
2019-04-01T05:35:28.812Z,28.3497
2019-04-01T05:36:31.100Z,28.3360
2019-04-01T05:37:33.405Z,28.4184
2019-04-01T05:38:35.692Z,28.4062
2019-04-01T05:39:38.064Z,28.4199
2019-04-01T05:40:40.402Z,28.4916
2019-04-01T05:41:42.690Z,28.4367
2019-04-01T05:42:44.980Z,28.3955
2019-04-01T05:43:47.275Z,28.3925
2019-04-01T05:44:49.569Z,28.5786
2019-04-01T05:45:51.882Z,28.4382
2019-04-01T05:46:54.186Z,28.5283
2019-04-01T05:47:56.478Z,28.4520
2019-04-01T05:48:58.766Z,28.5969
2019-04-01T05:50:01.072Z,28.6610
2019-04-01T05:51:03.392Z,28.6900
2019-04-01T05:52:05.680Z,28.6442
2019-04-01T05:53:07.984Z,28.6717
2019-04-01T05:54:10.278Z,28.7160
2019-04-01T05:55:12.579Z,28.7037
2019-04-01T05:56:14.891Z,28.7617
2019-04-01T05:57:17.254Z,28.8167
2019-04-01T05:58:19.542Z,28.7343
2019-04-01T05:59:21.820Z,28.8319
2019-04-01T06:00:24.123Z,28.7480
2019-04-01T06:01:26.437Z,28.7175
2019-04-01T06:02:28.744Z,28.7617
2019-04-01T06:03:31.048Z,28.7526
2019-04-01T06:04:33.336Z,28.7358
2019-04-01T06:05:35.708Z,28.7800
2019-04-01T06:06:38.070Z,28.8182
2019-04-01T06:07:40.359Z,29.0654
2019-04-01T06:08:42.648Z,29.0272
2019-04-01T06:09:44.967Z,28.9403
2019-04-01T06:10:47.264Z,29.0410
2019-04-01T06:11:49.575Z,29.0135
2019-04-01T06:12:51.870Z,29.0272
2019-04-01T06:13:54.164Z,29.1295
2019-04-01T06:14:56.453Z,29.0867
2019-04-01T06:15:58.761Z,29.0272
2019-04-01T06:17:01.087Z,29.0455
2019-04-01T06:18:03.383Z,29.0837
2019-04-01T06:19:06.103Z,29.0288
2019-04-01T06:20:08.542Z,29.0730
2019-04-01T06:21:10.832Z,29.1844
2019-04-01T06:22:13.132Z,29.1936
2019-04-01T06:23:15.434Z,29.3309
2019-04-01T06:24:17.727Z,29.3294
2019-04-01T06:25:20.043Z,29.3065
2019-04-01T06:26:22.347Z,29.3477
2019-04-01T06:27:25.006Z,29.2927
2019-04-01T06:28:27.605Z,29.3111
2019-04-01T06:29:29.896Z,29.3629
2019-04-01T06:30:32.191Z,29.3339
2019-04-01T06:31:34.490Z,29.3065
2019-04-01T06:32:36.796Z,29.3248
2019-04-01T06:33:39.154Z,29.3248
2019-04-01T06:34:52.296Z,29.5399
2019-04-01T06:35:49.717Z,29.3797
2019-04-01T06:36:52.022Z,29.3950
2019-04-01T06:37:54.322Z,29.4408
2019-04-01T06:38:56.625Z,29.4682
2019-04-01T06:39:58.926Z,29.5872
2019-04-01T06:41:01.295Z,29.6742
2019-04-01T06:42:05.625Z,29.5125
2019-04-01T06:43:09.417Z,29.7292
2019-04-01T06:44:11.706Z,29.6452
2019-04-01T06:45:14.013Z,29.7597
2019-04-01T06:46:16.310Z,29.6742
2019-04-01T06:47:18.611Z,29.8878
2019-04-01T06:48:20.906Z,29.8329
2019-04-01T06:49:23.194Z,29.8207
2019-04-01T06:50:25.483Z,29.7093
2019-04-01T06:51:27.786Z,30.0801
2019-04-01T06:52:30.093Z,29.8924
2019-04-01T06:53:32.395Z,29.9535
2019-04-01T06:54:34.687Z,29.9519
2019-04-01T06:55:36.983Z,30.0206
2019-04-01T06:56:39.275Z,30.0984
2019-04-01T06:57:41.569Z,30.0542
2019-04-01T06:58:43.865Z,30.1442
2019-04-01T06:59:46.155Z,30.1579
2019-04-01T07:00:48.453Z,30.0847
2019-04-01T07:01:50.765Z,30.1442
2019-04-01T07:02:53.056Z,30.2174
2019-04-01T07:03:55.351Z,30.1823
2019-04-01T07:04:57.640Z,30.2907
2019-04-01T07:05:59.937Z,30.3334
2019-04-01T07:07:02.232Z,30.2312
2019-04-01T07:08:04.529Z,30.2785
2019-04-01T07:09:06.863Z,30.3044
2019-04-01T07:10:09.151Z,30.4341
2019-04-01T07:11:11.438Z,30.4646
2019-04-01T07:12:13.729Z,30.3655
2019-04-01T07:13:16.016Z,30.4509
2019-04-01T07:14:18.369Z,30.5394
2019-04-01T07:15:20.677Z,30.4967
2019-04-01T07:16:22.964Z,30.3929
2019-04-01T07:17:25.286Z,30.4845
2019-04-01T07:18:27.588Z,30.6294
2019-04-01T07:19:29.908Z,30.5577
2019-04-01T07:20:32.206Z,30.5745
2019-04-01T07:21:34.500Z,30.7042
2019-04-01T07:22:36.800Z,30.7042
2019-04-01T07:23:39.087Z,30.6798
2019-04-01T07:24:41.399Z,30.8232
2019-04-01T07:25:43.686Z,30.7408
2019-04-01T07:26:45.981Z,31.0384
2019-04-01T07:27:48.355Z,30.8507
2019-04-01T07:28:50.655Z,30.8965
2019-04-01T07:29:52.969Z,30.7866
2019-04-01T07:30:55.260Z,30.8721
2019-04-01T07:31:57.558Z,30.8415
2019-04-01T07:32:59.843Z,31.0277
2019-04-01T07:34:02.143Z,30.8858
2019-04-01T07:35:04.448Z,30.9010
2019-04-01T07:36:06.737Z,30.9697
2019-04-01T07:37:09.034Z,30.9468
2019-04-01T07:38:11.369Z,30.8461
2019-04-01T07:39:13.668Z,31.0338
2019-04-01T07:40:15.966Z,30.9636
2019-04-01T07:41:18.262Z,30.9194
2019-04-01T07:42:20.550Z,30.8873
2019-04-01T07:43:24.880Z,30.9651
2019-04-01T07:44:27.222Z,31.1070
2019-04-01T07:45:29.521Z,31.1803
2019-04-01T07:46:31.821Z,30.9697
2019-04-01T07:47:34.124Z,30.8507
2019-04-01T07:48:36.418Z,30.9590
2019-04-01T07:49:38.712Z,30.6020
2019-04-01T07:50:41.007Z,30.6950
2019-04-01T07:51:43.309Z,30.6996
2019-04-01T07:52:45.608Z,30.6310
2019-04-01T07:53:47.914Z,30.7164
2019-04-01T07:54:50.266Z,30.8278
2019-04-01T07:55:52.563Z,30.9865
2019-04-01T07:56:54.863Z,30.7622
2019-04-01T07:57:59.757Z,30.8461
2019-04-01T07:59:02.271Z,30.9880
2019-04-01T08:00:04.570Z,31.1025
2019-04-01T08:01:06.894Z,31.2444
2019-04-01T08:02:09.188Z,31.4321
2019-04-01T08:03:19.157Z,31.2993
2019-04-01T08:04:29.168Z,31.1833
2019-04-01T08:05:38.838Z,31.3726
2019-04-01T08:06:41.127Z,31.4534
2019-04-01T08:07:43.439Z,31.4397
2019-04-01T08:08:46.382Z,31.5099
2019-04-01T08:09:48.777Z,31.5587
2019-04-01T08:10:51.073Z,31.6289
2019-04-01T08:11:53.395Z,31.5969
2019-04-01T08:12:55.698Z,31.6106
2019-04-01T08:13:57.990Z,31.5373
2019-04-01T08:15:00.416Z,31.7937
2019-04-01T08:16:02.721Z,31.6365
2019-04-01T08:17:05.024Z,31.6655
2019-04-01T08:18:07.332Z,31.8242
2019-04-01T08:19:09.621Z,31.8715
2019-04-01T08:20:20.208Z,31.8395
2019-04-01T08:21:22.510Z,31.7784
2019-04-01T08:22:24.808Z,31.8532
2019-04-01T08:23:27.097Z,31.8700
2019-04-01T08:24:29.397Z,31.9158
2019-04-01T08:25:31.780Z,31.8654
2019-04-01T08:26:34.080Z,31.9081
2019-04-01T08:27:36.409Z,32.0851
2019-04-01T08:28:38.706Z,31.9982
2019-04-01T08:29:40.995Z,32.1996
2019-04-01T08:30:43.294Z,32.1035
2019-04-01T08:31:45.586Z,32.0317
2019-04-01T08:32:47.887Z,31.8013
2019-04-01T08:33:50.473Z,31.8608
2019-04-01T08:34:52.781Z,31.7189
2019-04-01T08:35:55.079Z,31.7189
2019-04-01T08:36:57.372Z,31.5923
2019-04-01T08:37:59.710Z,31.5740
2019-04-01T08:39:02.000Z,31.4046
2019-04-01T08:40:04.301Z,31.3588
2019-04-01T08:41:06.617Z,31.3451
2019-04-01T08:42:08.903Z,31.3756
2019-04-01T08:43:11.205Z,31.3207
2019-04-01T08:44:13.502Z,31.3634
2019-04-01T08:45:15.801Z,31.3069
2019-04-01T08:46:18.124Z,31.5724
2019-04-01T08:47:20.429Z,31.4855
2019-04-01T08:48:22.732Z,31.3863
2019-04-01T08:49:25.038Z,31.3680
2019-04-01T08:50:27.339Z,31.5785
2019-04-01T08:51:29.627Z,31.6381
2019-04-01T08:52:31.927Z,31.5648
2019-04-01T08:53:34.228Z,31.5816
2019-04-01T08:54:36.521Z,31.7418
2019-04-01T08:55:38.823Z,31.7281
2019-04-01T08:56:41.123Z,31.7433
2019-04-01T08:57:43.432Z,31.7739
2019-04-01T08:58:45.738Z,31.6747
2019-04-01T08:59:48.076Z,31.6732
2019-04-01T09:00:50.372Z,31.8334
2019-04-01T09:01:52.663Z,31.8334
2019-04-01T09:02:54.957Z,31.8166
2019-04-01T09:03:57.269Z,31.8517
2019-04-01T09:04:59.603Z,31.8517
2019-04-01T09:06:01.980Z,31.8563
2019-04-01T09:07:04.407Z,31.8532
2019-04-01T09:08:06.697Z,31.8715
2019-04-01T09:09:09.004Z,31.8990
2019-04-01T09:10:11.305Z,31.9860
2019-04-01T09:11:13.601Z,31.9432
2019-04-01T09:12:15.995Z,32.0302
2019-04-01T09:13:18.298Z,32.0043
2019-04-01T09:14:20.604Z,32.0531
2019-04-01T09:15:22.895Z,32.0500
2019-04-01T09:16:25.195Z,32.0958
2019-04-01T09:17:27.500Z,32.0806
2019-04-01T09:18:29.786Z,32.0394
2019-04-01T09:19:32.107Z,32.0821
2019-04-01T09:20:34.395Z,32.1126
2019-04-01T09:21:36.699Z,32.1874
2019-04-01T09:22:39.016Z,32.1599
2019-04-01T09:23:41.318Z,32.1279
2019-04-01T09:24:43.610Z,32.2774
2019-04-01T09:25:45.976Z,32.2591
2019-04-01T09:26:48.277Z,32.2225
2019-04-01T09:27:50.579Z,32.2194
2019-04-01T09:28:52.858Z,32.2911
2019-04-01T09:29:55.236Z,32.3369
2019-04-01T09:30:57.529Z,32.3095
2019-04-01T09:31:59.825Z,32.2789
2019-04-01T09:33:02.149Z,32.2240
2019-04-01T09:34:04.444Z,32.1950
2019-04-01T09:35:06.750Z,32.2271
2019-04-01T09:36:09.119Z,32.2927
2019-04-01T09:37:11.486Z,32.1508
2019-04-01T09:38:13.806Z,32.2133
2019-04-01T09:39:16.116Z,32.2271
2019-04-01T09:40:18.460Z,32.1691
2019-04-01T09:41:20.754Z,32.1401
2019-04-01T09:42:23.080Z,32.1721
2019-04-01T09:43:25.376Z,32.1828
2019-04-01T09:44:36.805Z,32.1721
2019-04-01T09:45:36.013Z,32.0867
2019-04-01T09:46:38.353Z,32.2286
2019-04-01T09:47:40.723Z,32.1309
2019-04-01T09:48:43.044Z,32.1553
2019-04-01T09:49:45.354Z,32.1599
2019-04-01T09:50:47.667Z,32.1630
2019-04-01T09:51:49.987Z,32.1599
2019-04-01T09:52:52.289Z,32.1782
2019-04-01T09:53:54.586Z,32.0897
2019-04-01T09:54:56.881Z,32.2469
2019-04-01T09:55:59.179Z,32.2377
2019-04-01T09:57:16.142Z,32.2683
2019-04-01T09:58:09.761Z,32.2698
2019-04-01T09:59:12.067Z,32.2103
2019-04-01T10:00:14.387Z,32.1859
2019-04-01T10:01:16.692Z,32.2728
2019-04-01T10:02:31.163Z,32.3339
2019-04-01T10:03:27.251Z,32.4331
2019-04-01T10:04:29.536Z,32.4651
2019-04-01T10:05:31.860Z,32.5200
2019-04-01T10:06:34.199Z,32.6390
2019-04-01T10:07:36.590Z,32.5673
2019-04-01T10:08:42.570Z,32.4514
2019-04-01T10:09:45.229Z,32.5841
2019-04-01T10:10:47.527Z,32.5399
2019-04-01T10:11:49.834Z,32.4529
2019-04-01T10:12:52.152Z,32.4239
2019-04-01T10:13:54.509Z,32.4529
2019-04-01T10:14:56.791Z,32.4254
2019-04-01T10:15:59.095Z,32.3705
2019-04-01T10:17:01.394Z,32.3415
2019-04-01T10:18:03.704Z,32.4025
2019-04-01T10:19:06.040Z,32.3568
2019-04-01T10:20:08.342Z,32.2591
2019-04-01T10:21:10.707Z,32.2835
2019-04-01T10:22:13.049Z,32.3705
2019-04-01T10:23:15.350Z,32.2698
2019-04-01T10:24:17.643Z,32.4163
2019-04-01T10:25:19.947Z,32.3156
2019-04-01T10:26:22.233Z,32.2454
2019-04-01T10:27:24.595Z,32.3461
2019-04-01T10:28:26.888Z,32.3049
2019-04-01T10:29:29.185Z,32.2454
2019-04-01T10:30:31.577Z,32.2148
2019-04-01T10:31:33.870Z,32.1599
2019-04-01T10:32:36.203Z,32.1599
2019-04-01T10:33:38.512Z,32.2194
2019-04-01T10:34:40.813Z,32.2332
2019-04-01T10:35:43.109Z,32.3964
2019-04-01T10:36:45.417Z,32.2911
2019-04-01T10:37:47.717Z,32.3201
2019-04-01T10:38:50.042Z,32.4239
2019-04-01T10:39:52.336Z,32.3873
2019-04-01T10:40:54.689Z,32.2515
2019-04-01T10:41:57.005Z,32.2377
2019-04-01T10:42:59.337Z,32.3842
2019-04-01T10:44:04.764Z,32.3293
2019-04-01T10:45:07.337Z,32.3110
2019-04-01T10:46:12.241Z,32.2835
2019-04-01T10:47:14.806Z,32.3018
2019-04-01T10:48:17.182Z,32.4605
2019-04-01T10:49:19.234Z,32.4163
2019-04-01T10:50:21.629Z,32.5795
2019-04-01T10:51:24.038Z,32.5216
2019-04-01T10:52:26.325Z,32.4193
2019-04-01T10:53:28.757Z,32.3461
2019-04-01T10:54:31.116Z,32.4071
2019-04-01T10:55:33.559Z,32.4071
2019-04-01T10:56:36.241Z,32.3507
2019-04-01T10:57:38.679Z,32.3339
2019-04-01T10:58:41.025Z,32.4804
2019-04-01T10:59:43.345Z,32.3644
2019-04-01T11:00:45.836Z,32.3796
2019-04-01T11:01:48.227Z,32.5566
2019-04-01T11:02:50.628Z,32.3980
2019-04-01T11:03:53.039Z,32.5017
2019-04-01T11:04:55.383Z,32.5292
2019-04-01T11:05:57.692Z,32.6772
2019-04-01T11:07:00.091Z,32.6635
2019-04-01T11:08:02.534Z,32.6253
2019-04-01T11:09:04.879Z,32.6482
2019-04-01T11:10:11.015Z,32.6345
2019-04-01T11:11:14.086Z,32.5490
2019-04-01T11:12:16.392Z,32.7413
2019-04-01T11:13:18.680Z,32.6528
2019-04-01T11:14:21.010Z,32.7672
2019-04-01T11:15:23.311Z,32.7260
2019-04-01T11:16:25.604Z,32.6528
2019-04-01T11:17:27.909Z,32.7413
2019-04-01T11:18:30.278Z,32.7718
2019-04-01T11:19:32.584Z,32.6299
2019-04-01T11:20:34.897Z,32.6390
2019-04-01T11:21:37.202Z,32.6406
2019-04-01T11:22:39.495Z,32.6726
2019-04-01T11:23:41.789Z,32.6162
2019-04-01T11:24:44.092Z,32.7214
2019-04-01T11:25:46.381Z,32.6299
2019-04-01T11:26:48.707Z,32.6772
2019-04-01T11:27:51.006Z,32.7001
2019-04-01T11:28:53.295Z,32.7626
2019-04-01T11:29:55.592Z,32.8786
2019-04-01T11:30:57.891Z,32.9229
2019-04-01T11:32:00.221Z,32.8649
2019-04-01T11:33:02.589Z,32.7169
2019-04-01T11:34:04.912Z,32.7031
2019-04-01T11:35:07.229Z,32.7031
2019-04-01T11:36:09.606Z,32.5261
2019-04-01T11:37:11.947Z,32.4849
2019-04-01T11:38:14.294Z,32.4620
2019-04-01T11:39:16.672Z,32.3095
2019-04-01T11:40:19.015Z,32.2133
2019-04-01T11:41:21.299Z,32.3369
2019-04-01T11:42:23.593Z,32.1828
2019-04-01T11:43:25.935Z,32.3278
2019-04-01T11:44:28.309Z,32.3552
2019-04-01T11:45:30.701Z,32.3232
2019-04-01T11:46:33.094Z,32.2881
2019-04-01T11:47:35.423Z,32.2469
2019-04-01T11:48:37.754Z,32.2560
2019-04-01T11:49:40.046Z,32.3598
2019-04-01T11:50:42.374Z,32.4483
2019-04-01T11:51:44.766Z,32.3003
2019-04-01T11:52:47.135Z,32.1675
2019-04-01T11:53:49.451Z,32.0958
2019-04-01T11:54:51.767Z,32.1279
2019-04-01T11:55:54.063Z,32.2148
2019-04-01T11:56:56.363Z,32.2194
2019-04-01T11:57:58.660Z,32.3232
2019-04-01T11:59:00.952Z,32.3781
2019-04-01T12:00:03.239Z,32.6451
2019-04-01T12:01:05.539Z,32.6757
2019-04-01T12:02:07.899Z,32.7947
2019-04-01T12:03:10.220Z,32.6619
2019-04-01T12:04:12.544Z,32.6802
2019-04-01T12:05:14.840Z,32.6345
2019-04-01T12:06:17.170Z,32.6360
2019-04-01T12:07:19.473Z,32.7855
2019-04-01T12:08:21.782Z,32.6543
2019-04-01T12:09:24.105Z,32.5765
2019-04-01T12:10:26.431Z,32.5490
2019-04-01T12:11:28.741Z,32.4620
2019-04-01T12:12:31.853Z,32.5078
2019-04-01T12:13:34.258Z,32.4895
2019-04-01T12:14:36.543Z,31.8837
2019-04-01T12:15:38.854Z,31.3863
2019-04-01T12:16:41.174Z,31.0918
2019-04-01T12:17:43.472Z,30.9606
2019-04-01T12:18:45.781Z,30.9834
2019-04-01T12:19:48.085Z,30.8690
2019-04-01T12:20:50.449Z,30.7225
2019-04-01T12:21:52.807Z,30.7118
2019-04-01T12:22:55.113Z,30.7118
2019-04-01T12:23:57.418Z,30.8370
2019-04-01T12:24:59.714Z,30.7042
2019-04-01T12:26:14.434Z,30.6752
2019-04-01T12:27:09.529Z,30.5074
2019-04-01T12:28:11.838Z,30.6020
2019-04-01T12:29:14.532Z,30.6706
2019-04-01T12:30:17.164Z,30.8324
2019-04-01T12:31:19.450Z,30.8873
2019-04-01T12:32:21.746Z,30.8446
2019-04-01T12:33:26.153Z,30.8537
2019-04-01T12:34:28.797Z,31.1421
2019-04-01T12:35:31.089Z,31.1421